createdAt,value
2023-04-13T00:00:38.409Z,69.12
2023-04-13T00:03:08.722Z,69.01
2023-04-13T00:05:41.296Z,69.39
2023-04-13T00:08:12.993Z,69.20
2023-04-13T00:10:42.871Z,68.94
2023-04-13T00:13:26.492Z,68.66
2023-04-13T00:15:56.898Z,69.37
2023-04-13T00:18:26.414Z,69.72
2023-04-13T00:21:08.816Z,69.48
2023-04-13T00:23:46.824Z,69.93
2023-04-13T00:26:20.765Z,70.24
2023-04-13T00:29:07.563Z,70.05
2023-04-13T00:31:46.330Z,70.43
2023-04-13T00:34:14.645Z,70.56
2023-04-13T00:36:49.979Z,71.31
2023-04-13T00:39:24.862Z,71.19
2023-04-13T00:41:52.989Z,71.47
2023-04-13T00:44:23.466Z,71.77
2023-04-13T00:46:54.721Z,71.53
2023-04-13T00:49:26.034Z,71.25
2023-04-13T00:51:56.907Z,71.75
2023-04-13T00:54:26.115Z,72.31
2023-04-13T00:57:06.552Z,72.59
2023-04-13T00:59:39.177Z,72.79
2023-04-13T01:02:08.256Z,72.21
2023-04-13T01:04:42.084Z,72.51
2023-04-13T01:07:22.774Z,72.71
2023-04-13T01:09:58.214Z,72.92
2023-04-13T01:12:31.793Z,73.07
2023-04-13T01:15:15.875Z,72.83
2023-04-13T01:17:48.806Z,73.39
2023-04-13T01:20:19.013Z,73.13
2023-04-13T01:22:55.699Z,73.19
2023-04-13T01:25:44.974Z,72.06
2023-04-13T01:28:33.039Z,72.99
2023-04-13T01:31:08.558Z,73.55
2023-04-13T01:33:41.179Z,73.49
2023-04-13T01:36:11.787Z,73.99
2023-04-13T01:38:41.107Z,74.00
2023-04-13T01:41:14.277Z,73.32
2023-04-13T01:44:03.333Z,73.69
2023-04-13T01:46:39.947Z,72.91
2023-04-13T01:49:27.508Z,73.13
2023-04-13T01:52:36.894Z,71.56
2023-04-13T01:55:12.406Z,73.05
2023-04-13T01:57:47.463Z,74.44
2023-04-13T02:00:38.743Z,74.38
2023-04-13T02:03:13.591Z,73.95
2023-04-13T02:05:43.415Z,74.72
2023-04-13T02:08:15.253Z,74.67
2023-04-13T02:10:49.222Z,75.20
2023-04-13T02:13:19.727Z,75.69
2023-04-13T02:15:56.662Z,77.12
2023-04-13T02:18:31.524Z,78.79
2023-04-13T02:21:08.506Z,79.39
2023-04-13T02:23:40.629Z,80.61
2023-04-13T02:26:19.523Z,81.31
2023-04-13T02:28:58.375Z,83.14
2023-04-13T02:31:31.917Z,84.08
2023-04-13T02:34:02.269Z,84.75
2023-04-13T02:36:33.473Z,86.36
2023-04-13T02:39:11.254Z,87.15
2023-04-13T02:41:43.559Z,90.67
2023-04-13T02:44:18.869Z,91.92
2023-04-13T02:47:16.025Z,91.96
2023-04-13T02:49:46.128Z,94.12
2023-04-13T02:52:29.428Z,96.37
2023-04-13T02:55:06.790Z,98.33
2023-04-13T02:57:49.993Z,98.97
2023-04-13T03:00:29.612Z,100.00
2023-04-13T03:03:09.058Z,100.00
2023-04-13T03:05:50.847Z,100.00
2023-04-13T03:08:24.142Z,100.00
2023-04-13T03:11:20.416Z,100.00
2023-04-13T03:13:59.645Z,100.00
2023-04-13T03:16:32.073Z,100.00
2023-04-13T03:19:07.560Z,100.00
2023-04-13T03:21:39.827Z,100.00
2023-04-13T03:24:17.786Z,100.00
2023-04-13T03:26:48.255Z,100.00
2023-04-13T03:29:26.292Z,100.00
2023-04-13T03:32:03.422Z,100.00
2023-04-13T03:34:44.382Z,100.00
2023-04-13T03:37:23.300Z,100.00
2023-04-13T03:39:54.093Z,100.00
2023-04-13T03:42:31.215Z,100.00
2023-04-13T03:45:07.237Z,100.00
2023-04-13T03:47:39.286Z,100.00
2023-04-13T03:50:20.563Z,100.00
2023-04-13T03:53:05.579Z,100.00
2023-04-13T03:55:34.156Z,100.00
2023-04-13T03:58:13.562Z,100.00
2023-04-13T04:00:46.456Z,100.00
2023-04-13T04:03:27.935Z,100.00
2023-04-13T04:06:31.320Z,100.00
2023-04-13T04:09:18.391Z,100.00
2023-04-13T04:12:15.731Z,100.00
2023-04-13T04:14:54.884Z,100.00
2023-04-13T04:17:34.560Z,100.00
2023-04-13T04:20:11.758Z,100.00
2023-04-13T04:22:47.508Z,100.00
2023-04-13T04:25:27.775Z,100.00
2023-04-13T04:27:57.800Z,100.00
2023-04-13T04:30:29.822Z,100.00
2023-04-13T04:32:59.850Z,100.00
2023-04-13T04:35:41.416Z,100.00
2023-04-13T04:38:17.340Z,100.00
2023-04-13T04:40:49.768Z,100.00
2023-04-13T04:43:24.026Z,100.00
2023-04-13T04:46:05.607Z,100.00
2023-04-13T04:48:42.235Z,100.00
2023-04-13T04:51:16.276Z,100.00
2023-04-13T04:53:59.735Z,100.00
2023-04-13T04:56:31.056Z,100.00
2023-04-13T04:59:01.823Z,100.00
2023-04-13T05:01:46.071Z,100.00
2023-04-13T05:04:17.251Z,100.00
2023-04-13T05:07:02.590Z,100.00
2023-04-13T05:09:41.725Z,100.00
2023-04-13T05:12:19.663Z,100.00
2023-04-13T05:14:49.744Z,100.00
2023-04-13T05:17:24.093Z,100.00
2023-04-13T05:19:55.319Z,100.00
2023-04-13T05:22:53.254Z,100.00
2023-04-13T05:25:27.027Z,100.00
2023-04-13T05:28:05.734Z,100.00
2023-04-13T05:30:40.206Z,100.00
2023-04-13T05:33:09.329Z,100.00
2023-04-13T05:35:42.915Z,100.00
2023-04-13T05:38:14.645Z,100.00
2023-04-13T05:40:47.098Z,100.00
2023-04-13T05:43:27.065Z,100.00
2023-04-13T05:45:57.546Z,100.00
2023-04-13T05:48:30.500Z,100.00
2023-04-13T05:51:04.332Z,100.00
2023-04-13T05:53:41.802Z,100.00
2023-04-13T05:56:11.918Z,100.00
2023-04-13T05:58:45.579Z,100.00
2023-04-13T06:01:35.149Z,100.00
2023-04-13T06:04:09.571Z,100.00
2023-04-13T06:06:48.137Z,100.00
2023-04-13T06:09:25.680Z,100.00
2023-04-13T06:12:06.927Z,100.00
2023-04-13T06:14:38.118Z,100.00
2023-04-13T06:17:12.289Z,100.00
2023-04-13T06:19:43.687Z,100.00
2023-04-13T06:22:21.473Z,100.00
2023-04-13T06:25:00.483Z,100.00
2023-04-13T06:27:43.566Z,100.00
2023-04-13T06:30:13.316Z,100.00
2023-04-13T06:32:42.963Z,100.00
2023-04-13T06:35:14.884Z,100.00
2023-04-13T06:37:49.676Z,100.00
2023-04-13T06:40:37.016Z,100.00
2023-04-13T06:43:29.072Z,100.00
2023-04-13T06:46:25.988Z,100.00
2023-04-13T06:49:05.218Z,100.00
2023-04-13T06:51:38.196Z,100.00
2023-04-13T06:54:10.520Z,100.00
2023-04-13T06:56:48.474Z,100.00
2023-04-13T06:59:21.354Z,100.00
2023-04-13T07:01:53.398Z,100.00
2023-04-13T07:04:33.196Z,100.00
2023-04-13T07:07:06.996Z,100.00
2023-04-13T07:09:36.905Z,100.00
2023-04-13T07:12:09.739Z,100.00
2023-04-13T07:14:46.412Z,100.00
2023-04-13T07:17:20.135Z,100.00
2023-04-13T07:19:57.344Z,100.00
2023-04-13T07:22:27.687Z,100.00
2023-04-13T07:25:01.286Z,100.00
2023-04-13T07:27:33.653Z,100.00
2023-04-13T07:30:24.011Z,100.00
2023-04-13T07:32:55.509Z,100.00
2023-04-13T07:35:30.168Z,100.00
2023-04-13T07:38:02.191Z,100.00
2023-04-13T07:40:33.174Z,100.00
2023-04-13T07:43:07.146Z,100.00
2023-04-13T07:45:44.613Z,100.00
2023-04-13T07:48:17.975Z,100.00
2023-04-13T07:50:48.605Z,100.00
2023-04-13T07:53:30.165Z,100.00
2023-04-13T07:56:00.030Z,100.00
2023-04-13T07:58:30.940Z,100.00
2023-04-13T08:01:07.911Z,100.00
2023-04-13T08:03:41.317Z,100.00
2023-04-13T08:06:21.211Z,100.00
2023-04-13T08:08:53.584Z,100.00
2023-04-13T08:11:27.103Z,100.00
2023-04-13T08:14:07.507Z,100.00
2023-04-13T08:16:47.849Z,100.00
2023-04-13T08:19:17.608Z,100.00
2023-04-13T08:21:56.079Z,100.00
2023-04-13T08:24:25.623Z,100.00
2023-04-13T08:27:01.094Z,100.00
2023-04-13T08:29:29.564Z,100.00
2023-04-13T08:32:16.864Z,100.00
2023-04-13T08:34:48.898Z,100.00
2023-04-13T08:37:20.917Z,100.00
2023-04-13T08:39:56.899Z,100.00
2023-04-13T08:42:28.993Z,100.00
2023-04-13T08:45:07.789Z,100.00
2023-04-13T08:47:47.058Z,100.00
2023-04-13T08:50:18.252Z,100.00
2023-04-13T08:52:54.663Z,100.00
2023-04-13T08:55:26.448Z,100.00
2023-04-13T08:58:06.781Z,100.00
2023-04-13T09:00:39.988Z,100.00
2023-04-13T09:03:14.525Z,100.00
2023-04-13T09:05:59.741Z,100.00
2023-04-13T09:08:38.664Z,100.00
2023-04-13T09:11:11.716Z,100.00
2023-04-13T09:13:41.640Z,100.00
2023-04-13T09:16:12.131Z,100.00
2023-04-13T09:18:58.305Z,100.00
2023-04-13T09:21:42.307Z,100.00
2023-04-13T09:24:13.016Z,100.00
2023-04-13T09:26:43.542Z,100.00
2023-04-13T09:29:23.954Z,100.00
2023-04-13T09:31:54.980Z,100.00
2023-04-13T09:34:31.692Z,100.00
2023-04-13T09:37:08.064Z,99.46
2023-04-13T09:39:44.531Z,97.34
2023-04-13T09:42:18.247Z,97.97
2023-04-13T09:45:02.352Z,96.33
2023-04-13T09:47:38.436Z,96.75
2023-04-13T09:50:30.232Z,95.41
2023-04-13T09:53:13.259Z,94.74
2023-04-13T09:55:47.503Z,93.80
2023-04-13T09:58:25.319Z,94.01
2023-04-13T10:00:55.371Z,94.74
2023-04-13T10:03:33.926Z,95.75
2023-04-13T10:06:08.200Z,97.48
2023-04-13T10:08:41.992Z,95.84
2023-04-13T10:11:19.459Z,94.51
2023-04-13T10:13:55.975Z,94.69
2023-04-13T10:16:46.235Z,96.60
2023-04-13T10:19:20.782Z,95.84
2023-04-13T10:21:55.775Z,95.88
2023-04-13T10:24:28.939Z,93.87
2023-04-13T10:27:01.898Z,93.88
2023-04-13T10:29:32.797Z,93.61
2023-04-13T10:32:05.198Z,93.60
2023-04-13T10:34:36.557Z,93.46
2023-04-13T10:37:29.907Z,92.56
2023-04-13T10:40:10.038Z,91.64
2023-04-13T10:45:31.962Z,93.72
2023-04-13T10:48:01.023Z,92.24
2023-04-13T10:50:30.434Z,91.48
2023-04-13T10:53:08.258Z,90.81
2023-04-13T10:55:42.885Z,90.99
2023-04-13T10:58:21.930Z,92.55
2023-04-13T11:00:52.334Z,94.20
2023-04-13T11:03:20.878Z,94.34
2023-04-13T11:06:03.117Z,94.30
2023-04-13T11:11:26.105Z,94.24
2023-04-13T11:13:55.329Z,93.17
2023-04-13T11:16:25.885Z,92.90
2023-04-13T11:19:06.117Z,94.79
2023-04-13T11:21:41.344Z,92.49
2023-04-13T11:24:18.877Z,92.05
2023-04-13T11:26:56.725Z,93.01
2023-04-13T11:29:27.334Z,92.07
2023-04-13T11:31:58.373Z,90.75
2023-04-13T11:34:29.175Z,91.45
2023-04-13T11:37:09.355Z,91.54
2023-04-13T11:39:52.491Z,92.18
2023-04-13T11:42:23.219Z,92.89
2023-04-13T11:44:55.113Z,94.02
2023-04-13T11:47:23.931Z,93.02
2023-04-13T11:49:53.507Z,93.51
2023-04-13T11:52:24.114Z,94.12
2023-04-13T11:55:04.769Z,92.95
2023-04-13T11:57:53.562Z,93.08
2023-04-13T12:00:31.207Z,95.48
2023-04-13T12:03:15.282Z,95.73
2023-04-13T12:06:06.800Z,98.74
2023-04-13T12:08:38.321Z,97.66
2023-04-13T12:14:08.867Z,97.00
2023-04-13T12:19:20.722Z,99.49
2023-04-13T12:21:59.522Z,100.00
2023-04-13T12:24:39.779Z,100.00
2023-04-13T12:27:19.308Z,100.00
2023-04-13T12:29:49.009Z,100.00
2023-04-13T12:32:21.195Z,100.00
2023-04-13T12:34:50.074Z,100.00
2023-04-13T12:37:20.707Z,100.00
2023-04-13T12:39:51.131Z,100.00
2023-04-13T12:42:21.809Z,100.00
2023-04-13T12:44:55.291Z,100.00
2023-04-13T12:47:26.230Z,100.00
2023-04-13T12:49:59.490Z,100.00
2023-04-13T12:52:34.925Z,100.00
2023-04-13T12:55:05.666Z,100.00
2023-04-13T12:57:40.188Z,100.00
2023-04-13T13:00:12.183Z,100.00
2023-04-13T13:02:41.552Z,100.00
2023-04-13T13:05:13.363Z,100.00
2023-04-13T13:07:42.627Z,100.00
2023-04-13T13:10:29.035Z,100.00
2023-04-13T13:13:15.998Z,100.00
2023-04-13T13:15:46.591Z,100.00
2023-04-13T13:18:20.614Z,100.00
2023-04-13T13:20:55.646Z,100.00
2023-04-13T13:23:29.737Z,100.00
2023-04-13T13:28:50.829Z,100.00
2023-04-13T13:31:21.252Z,100.00
2023-04-13T13:33:54.556Z,100.00
2023-04-13T13:36:22.891Z,99.83
2023-04-13T13:38:54.529Z,100.00
2023-04-13T13:41:23.633Z,96.88
2023-04-13T13:44:06.172Z,97.42
2023-04-13T13:46:35.766Z,96.17
2023-04-13T13:49:17.908Z,94.47
2023-04-13T13:52:10.358Z,94.46
2023-04-13T13:54:51.892Z,96.42
2023-04-13T13:57:23.619Z,95.04
2023-04-13T13:59:55.762Z,94.73
2023-04-13T14:02:28.437Z,94.06
2023-04-13T14:05:06.483Z,96.25
2023-04-13T14:07:35.764Z,96.31
2023-04-13T14:10:06.716Z,92.33
2023-04-13T14:12:38.486Z,92.20
2023-04-13T14:15:12.881Z,91.88
2023-04-13T14:18:02.500Z,91.58
2023-04-13T14:20:45.981Z,91.75
2023-04-13T14:23:22.754Z,90.80
2023-04-13T14:25:53.436Z,91.25
2023-04-13T14:28:31.062Z,91.92
2023-04-13T14:31:10.099Z,90.59
2023-04-13T14:33:44.567Z,90.88
2023-04-13T14:36:16.246Z,91.22
2023-04-13T14:38:51.650Z,90.68
2023-04-13T14:41:30.498Z,90.28
2023-04-13T14:44:02.523Z,90.27
2023-04-13T14:46:35.066Z,88.79
2023-04-13T14:49:04.274Z,88.75
2023-04-13T14:51:35.471Z,89.77
2023-04-13T14:54:08.308Z,89.79
2023-04-13T14:56:44.524Z,91.68
2023-04-13T14:59:16.417Z,92.87
2023-04-13T15:02:08.055Z,94.99
2023-04-13T15:04:42.679Z,94.98
2023-04-13T15:07:20.932Z,96.57
2023-04-13T15:09:50.186Z,96.57
2023-04-13T15:12:21.532Z,97.44
2023-04-13T15:14:50.532Z,96.38
2023-04-13T15:17:31.933Z,96.99
2023-04-13T15:20:07.449Z,98.06
2023-04-13T15:22:37.278Z,95.98
2023-04-13T15:25:07.433Z,95.83
2023-04-13T15:27:38.447Z,95.23
2023-04-13T15:30:11.635Z,95.72
2023-04-13T15:33:02.509Z,95.23
2023-04-13T15:35:34.497Z,94.20
2023-04-13T15:38:04.460Z,92.75
2023-04-13T15:40:35.394Z,91.59
2023-04-13T15:43:11.736Z,92.41
2023-04-13T15:45:50.495Z,91.50
2023-04-13T15:48:34.144Z,92.84
2023-04-13T15:51:10.932Z,90.50
2023-04-13T15:53:45.077Z,91.63
2023-04-13T15:56:17.956Z,89.08
2023-04-13T15:58:49.409Z,90.32
2023-04-13T16:01:17.941Z,90.69
2023-04-13T16:04:04.054Z,89.25
2023-04-13T16:06:38.609Z,89.76
2023-04-13T16:09:06.596Z,90.54
2023-04-13T16:11:38.623Z,93.07
2023-04-13T16:14:10.397Z,94.51
2023-04-13T16:16:57.329Z,94.69
2023-04-13T16:19:43.985Z,92.91
2023-04-13T16:22:13.708Z,93.35
2023-04-13T16:24:51.908Z,95.59
2023-04-13T16:27:21.092Z,96.28
2023-04-13T16:29:59.460Z,95.85
2023-04-13T16:32:30.274Z,96.14
2023-04-13T16:35:16.062Z,93.26
2023-04-13T16:37:45.296Z,92.27
2023-04-13T16:40:18.884Z,91.89
2023-04-13T16:42:50.953Z,92.46
2023-04-13T16:45:22.213Z,91.15
2023-04-13T16:47:51.575Z,91.16
2023-04-13T16:50:33.536Z,88.34
2023-04-13T16:53:11.744Z,88.65
2023-04-13T16:55:40.532Z,89.09
2023-04-13T16:58:15.913Z,88.15
2023-04-13T17:01:16.251Z,88.61
2023-04-13T17:03:50.051Z,87.30
2023-04-13T17:06:25.973Z,89.23
2023-04-13T17:08:58.062Z,88.86
2023-04-13T17:11:39.153Z,89.51
2023-04-13T17:14:08.913Z,90.39
2023-04-13T17:16:40.714Z,89.69
2023-04-13T17:19:19.492Z,89.74
2023-04-13T17:22:04.045Z,90.46
2023-04-13T17:24:41.750Z,89.24
2023-04-13T17:27:12.688Z,89.47
2023-04-13T17:29:45.365Z,89.73
2023-04-13T17:32:15.693Z,91.22
2023-04-13T17:34:59.782Z,90.41
2023-04-13T17:37:34.527Z,90.77
2023-04-13T17:40:04.481Z,91.25
2023-04-13T17:42:47.672Z,92.32
2023-04-13T17:45:30.322Z,92.39
2023-04-13T17:48:01.614Z,92.54
2023-04-13T17:50:42.311Z,92.50
2023-04-13T17:53:12.267Z,94.57
2023-04-13T17:55:41.899Z,93.99
2023-04-13T17:58:15.582Z,93.24
2023-04-13T18:00:57.808Z,94.75
2023-04-13T18:03:29.213Z,93.27
2023-04-13T18:06:01.228Z,93.31
2023-04-13T18:08:48.521Z,92.97
2023-04-13T18:11:20.650Z,93.80
2023-04-13T18:14:02.797Z,92.25
2023-04-13T18:16:33.661Z,93.63
2023-04-13T18:19:08.753Z,94.93
2023-04-13T18:21:48.956Z,92.86
2023-04-13T18:24:21.464Z,92.29
2023-04-13T18:27:03.463Z,92.23
2023-04-13T18:29:34.950Z,91.42
2023-04-13T18:32:09.757Z,91.80
2023-04-13T18:34:43.127Z,92.48
2023-04-13T18:37:13.230Z,91.23
2023-04-13T18:39:52.352Z,90.15
2023-04-13T18:42:23.860Z,91.61
2023-04-13T18:44:52.778Z,91.14
2023-04-13T18:47:27.948Z,90.76
2023-04-13T18:49:59.351Z,89.31
2023-04-13T18:52:31.105Z,90.51
2023-04-13T18:55:05.671Z,89.88
2023-04-13T18:57:43.010Z,87.58
2023-04-13T19:00:17.387Z,86.78
2023-04-13T19:02:55.505Z,85.69
2023-04-13T19:05:24.654Z,85.50
2023-04-13T19:07:59.901Z,86.57
2023-04-13T19:10:47.417Z,85.78
2023-04-13T19:13:19.440Z,85.32
2023-04-13T19:15:57.807Z,84.75
2023-04-13T19:18:45.765Z,85.08
2023-04-13T19:21:24.365Z,84.77
2023-04-13T19:24:01.713Z,85.27
2023-04-13T19:29:40.643Z,86.58
2023-04-13T19:32:18.029Z,86.63
2023-04-13T19:34:51.649Z,85.09
2023-04-13T19:37:29.039Z,85.49
2023-04-13T19:40:07.262Z,85.23
2023-04-13T19:42:46.635Z,85.58
2023-04-13T19:45:33.338Z,86.88
2023-04-13T19:48:07.799Z,86.58
2023-04-13T19:50:48.185Z,86.95
2023-04-13T19:53:20.498Z,85.84
2023-04-13T19:55:52.575Z,86.20
2023-04-13T19:58:34.856Z,85.75
2023-04-13T20:01:08.698Z,85.40
2023-04-13T20:03:46.246Z,83.99
2023-04-13T20:06:24.180Z,85.81
2023-04-13T20:08:57.866Z,84.21
2023-04-13T20:11:32.517Z,85.66
2023-04-13T20:14:18.382Z,85.87
2023-04-13T20:16:58.215Z,85.84
2023-04-13T20:19:29.925Z,85.94
2023-04-13T20:22:02.428Z,86.03
2023-04-13T20:24:39.467Z,85.55
2023-04-13T20:27:19.753Z,87.13
2023-04-13T20:29:52.094Z,86.47
2023-04-13T20:32:21.498Z,86.44
2023-04-13T20:34:56.266Z,87.29
2023-04-13T20:37:27.082Z,87.18
2023-04-13T20:40:02.081Z,86.33
2023-04-13T20:42:34.585Z,85.74
2023-04-13T20:45:20.848Z,86.40
2023-04-13T20:47:53.365Z,87.53
2023-04-13T20:50:24.338Z,87.81
2023-04-13T20:53:02.425Z,87.02
2023-04-13T20:55:32.442Z,88.02
2023-04-13T20:58:06.313Z,88.76
2023-04-13T21:00:35.979Z,88.38
2023-04-13T21:03:05.293Z,90.32
2023-04-13T21:05:34.789Z,89.78
2023-04-13T21:08:13.661Z,91.10
2023-04-13T21:10:43.607Z,91.50
2023-04-13T21:13:23.662Z,91.26
2023-04-13T21:15:54.716Z,92.09
2023-04-13T21:18:25.188Z,93.22
2023-04-13T21:20:58.017Z,92.51
2023-04-13T21:23:28.792Z,92.00
2023-04-13T21:25:58.124Z,93.62
2023-04-13T21:28:30.161Z,94.58
2023-04-13T21:31:18.299Z,94.37
2023-04-13T21:33:48.871Z,94.72
2023-04-13T21:39:20.940Z,94.76
2023-04-13T21:41:50.937Z,96.74
2023-04-13T21:44:29.692Z,97.11
2023-04-13T21:47:09.823Z,97.62
2023-04-13T21:49:42.496Z,98.82
2023-04-13T21:52:18.963Z,100.00
2023-04-13T21:54:52.559Z,99.11
2023-04-13T21:57:22.157Z,99.29
2023-04-13T21:59:51.469Z,99.84
2023-04-13T22:02:27.150Z,99.10
2023-04-13T22:04:58.548Z,100.00
2023-04-13T22:07:41.674Z,100.00
2023-04-13T22:10:22.576Z,100.00
2023-04-13T22:12:57.619Z,100.00
2023-04-13T22:15:27.949Z,100.00
2023-04-13T22:18:07.715Z,100.00
2023-04-13T22:20:36.724Z,100.00
2023-04-13T22:23:06.093Z,100.00
2023-04-13T22:25:38.777Z,100.00
2023-04-13T22:28:15.682Z,100.00
2023-04-13T22:30:52.490Z,100.00
2023-04-13T22:33:34.162Z,100.00
2023-04-13T22:36:04.245Z,100.00
2023-04-13T22:38:34.144Z,100.00
2023-04-13T22:41:08.081Z,100.00
2023-04-13T22:43:37.575Z,100.00
2023-04-13T22:46:08.394Z,100.00
2023-04-13T22:48:42.537Z,100.00
2023-04-13T22:51:20.555Z,100.00
2023-04-13T22:53:51.743Z,100.00
2023-04-13T22:56:21.259Z,100.00
2023-04-13T22:58:50.977Z,100.00
2023-04-13T23:01:22.697Z,100.00
2023-04-13T23:03:56.101Z,100.00
2023-04-13T23:06:28.140Z,100.00
2023-04-13T23:08:57.789Z,100.00
2023-04-13T23:11:32.183Z,100.00
2023-04-13T23:14:00.689Z,100.00
2023-04-13T23:16:30.955Z,100.00
2023-04-13T23:19:03.702Z,100.00
2023-04-13T23:21:35.724Z,100.00
2023-04-13T23:24:07.942Z,100.00
2023-04-13T23:26:37.072Z,100.00
2023-04-13T23:29:06.137Z,100.00
2023-04-13T23:31:35.165Z,100.00
2023-04-13T23:34:07.456Z,100.00
2023-04-13T23:36:42.098Z,100.00
2023-04-13T23:39:15.166Z,100.00
2023-04-13T23:41:43.424Z,100.00
2023-04-13T23:44:12.623Z,100.00
2023-04-13T23:46:46.511Z,100.00
2023-04-13T23:49:23.370Z,100.00
2023-04-13T23:51:55.135Z,100.00
2023-04-13T23:54:25.718Z,100.00
2023-04-13T23:56:54.967Z,100.00
2023-04-13T23:59:27.303Z,100.00
